Time;durP1;ratioP1;P1;durP2;ratioP2;P2;SDS_P1;SDS_P2;PMS_P1;PMS_P2;Temp;Humidity;BMP_temperature;BMP_pressure;BME280_temperature;BME280_humidity;BME280_pressure;Samples;Min_cycle;Max_cycle;Signal;HPM_P1;HPM_P2
2023/08/27 04:01:59;;;;;;;3.27;2.53;;;18.30;91.50;;;;;;5413156;23;20493;-73
2023/08/27 04:04:26;;;;;;;2.60;2.40;;;18.30;91.10;;;;;;4916848;29;20470;-73
2023/08/27 04:06:53;;;;;;;3.60;2.47;;;18.20;91.10;;;;;;4916565;29;20930;-72
2023/08/27 04:09:20;;;;;;;3.30;3.00;;;18.10;91.70;;;;;;4916877;29;20488;-73
2023/08/27 04:11:47;;;;;;;2.93;2.63;;;18.00;91.80;;;;;;4916732;29;20555;-72
2023/08/27 04:14:14;;;;;;;2.77;2.17;;;17.90;92.20;;;;;;4917401;29;20457;-73
2023/08/27 04:16:40;;;;;;;2.77;1.97;;;18.00;92.50;;;;;;4916680;29;20481;-73
2023/08/27 04:19:08;;;;;;;2.87;2.60;;;18.00;92.40;;;;;;4917012;29;20441;-73
2023/08/27 04:21:35;;;;;;;3.10;2.80;;;18.10;92.50;;;;;;4916707;29;20465;-71
2023/08/27 04:24:02;;;;;;;3.10;1.80;;;18.10;92.40;;;;;;4916706;29;20481;-70
2023/08/27 04:26:28;;;;;;;3.33;2.97;;;18.20;92.10;;;;;;4916646;29;20476;-70
2023/08/27 04:28:55;;;;;;;2.73;2.40;;;18.30;91.50;;;;;;4916634;29;20821;-70
2023/08/27 04:31:22;;;;;;;3.57;2.57;;;18.40;91.00;;;;;;4916636;29;20468;-70
2023/08/27 04:33:49;;;;;;;2.33;1.90;;;18.40;91.10;;;;;;4916279;29;20946;-70
2023/08/27 04:36:17;;;;;;;2.80;2.43;;;18.40;91.10;;;;;;4916541;29;20491;-70
2023/08/27 04:38:43;;;;;;;2.57;2.17;;;18.50;90.80;;;;;;4916562;29;20445;-70
2023/08/27 04:41:10;;;;;;;4.27;2.50;;;18.60;90.40;;;;;;4916498;29;20468;-70
2023/08/27 04:43:37;;;;;;;2.60;2.20;;;18.70;90.10;;;;;;4916529;29;20520;-71
2023/08/27 04:46:04;;;;;;;2.40;1.70;;;18.80;89.90;;;;;;4918219;29;20448;-71
2023/08/27 04:48:31;;;;;;;2.27;1.83;;;18.80;89.40;;;;;;4919819;29;20448;-70
2023/08/27 04:50:58;;;;;;;2.50;2.00;;;18.80;89.30;;;;;;4919676;29;20468;-71
2023/08/27 04:53:27;;;;;;;2.30;1.73;;;18.90;89.30;;;;;;4919783;29;20456;-70
2023/08/27 04:55:54;;;;;;;3.27;1.53;;;18.80;89.00;;;;;;4919672;29;20488;-70
2023/08/27 04:58:20;;;;;;;2.20;1.60;;;18.90;89.00;;;;;;4919637;29;20448;-70
2023/08/27 05:00:47;;;;;;;2.30;1.83;;;18.80;88.80;;;;;;4919402;29;20469;-70
2023/08/27 05:03:14;;;;;;;2.60;2.37;;;18.70;88.90;;;;;;4919625;29;20437;-71
2023/08/27 05:05:41;;;;;;;2.70;1.90;;;18.70;89.40;;;;;;4919534;29;20448;-70
2023/08/27 05:08:08;;;;;;;2.30;1.90;;;18.70;89.30;;;;;;4919620;29;20464;-70
2023/08/27 05:10:36;;;;;;;2.90;1.97;;;18.50;89.60;;;;;;4919542;29;20456;-71
2023/08/27 05:13:03;;;;;;;2.50;2.17;;;18.50;90.30;;;;;;4919426;29;20484;-70
2023/08/27 05:15:30;;;;;;;2.50;2.07;;;18.60;90.40;;;;;;4919302;29;20452;-70
2023/08/27 05:17:58;;;;;;;2.10;1.80;;;18.60;90.20;;;;;;4919343;29;20456;-71
2023/08/27 05:20:24;;;;;;;2.27;1.77;;;18.60;90.10;;;;;;4919197;29;20448;-70
2023/08/27 05:22:51;;;;;;;2.30;1.70;;;18.70;89.90;;;;;;4919316;29;20504;-70
2023/08/27 05:25:18;;;;;;;3.57;2.20;;;18.80;89.40;;;;;;4919174;29;20471;-71
2023/08/27 05:27:46;;;;;;;2.40;1.70;;;18.80;89.50;;;;;;4919134;29;20449;-70
2023/08/27 05:30:14;;;;;;;2.40;1.90;;;18.90;89.20;;;;;;4919107;29;20456;-71
2023/08/27 05:32:41;;;;;;;2.20;1.60;;;18.90;89.10;;;;;;4918937;29;20484;-70
2023/08/27 05:35:08;;;;;;;2.73;1.90;;;19.00;88.80;;;;;;4919026;29;20463;-70
2023/08/27 05:37:35;;;;;;;2.20;1.60;;;19.10;88.60;;;;;;4918893;29;20488;-70
2023/08/27 05:40:02;;;;;;;2.53;1.67;;;19.10;88.40;;;;;;4918925;29;20444;-71
2023/08/27 05:42:29;;;;;;;2.10;1.43;;;19.10;88.10;;;;;;4918480;29;20998;-70
2023/08/27 05:44:57;;;;;;;2.57;1.70;;;19.10;88.20;;;;;;4918916;29;20524;-71
2023/08/27 05:47:24;;;;;;;2.17;1.50;;;19.10;88.30;;;;;;4918769;29;20504;-70
2023/08/27 05:49:50;;;;;;;3.73;2.17;;;18.80;87.80;;;;;;4918743;29;20509;-70
2023/08/27 05:52:17;;;;;;;2.10;1.27;;;18.60;89.00;;;;;;4918678;29;20473;-70
2023/08/27 05:54:44;;;;;;;2.30;1.50;;;18.50;89.40;;;;;;4918429;29;20873;-70
2023/08/27 05:57:10;;;;;;;2.10;1.10;;;18.30;89.00;;;;;;4918316;29;20491;-70
2023/08/27 05:59:37;;;;;;;2.33;1.40;;;18.30;89.30;;;;;;4918621;29;20448;-70
2023/08/27 06:02:07;;;;;;;2.00;1.30;;;18.20;90.10;;;;;;4918244;29;20484;-72
2023/08/27 06:04:34;;;;;;;2.20;1.23;;;18.00;90.60;;;;;;4918592;29;20488;-72
2023/08/27 06:07:01;;;;;;;2.17;1.40;;;17.80;91.20;;;;;;4918460;29;20452;-72
2023/08/27 06:09:27;;;;;;;3.13;1.70;;;17.70;91.60;;;;;;4918413;29;20445;-71
2023/08/27 06:11:54;;;;;;;2.77;1.20;;;17.60;92.10;;;;;;4918395;29;20472;-72
2023/08/27 06:14:21;;;;;;;2.93;1.43;;;17.70;92.80;;;;;;4918326;29;20444;-72
2023/08/27 06:16:48;;;;;;;3.60;2.03;;;17.90;92.40;;;;;;4918235;29;20595;-72
2023/08/27 06:19:16;;;;;;;2.20;1.43;;;18.00;92.40;;;;;;4918247;29;20448;-73
2023/08/27 06:21:43;;;;;;;2.70;1.60;;;18.20;92.20;;;;;;4918183;29;20556;-73
2023/08/27 06:24:10;;;;;;;3.30;1.37;;;18.40;91.20;;;;;;4918172;29;20459;-72
2023/08/27 06:26:36;;;;;;;2.10;1.30;;;18.40;90.80;;;;;;4917810;29;20445;-73
2023/08/27 06:29:05;;;;;;;2.03;1.30;;;18.50;90.80;;;;;;4918558;29;20443;-73
2023/08/27 06:31:32;;;;;;;2.70;1.30;;;18.50;90.60;;;;;;4917913;29;20478;-73
2023/08/27 06:33:58;;;;;;;2.70;1.63;;;18.40;90.50;;;;;;4917963;29;20452;-73
2023/08/27 06:36:27;;;;;;;2.60;1.67;;;18.60;91.10;;;;;;4918342;29;20569;-73
2023/08/27 06:38:54;;;;;;;2.13;1.60;;;18.70;91.00;;;;;;4917869;29;20445;-73
2023/08/27 06:41:20;;;;;;;2.03;1.47;;;18.70;90.40;;;;;;4917598;29;20989;-73
2023/08/27 06:43:47;;;;;;;2.30;1.40;;;18.80;90.50;;;;;;4917777;29;20830;-71
2023/08/27 06:46:13;;;;;;;3.13;1.70;;;18.90;90.20;;;;;;4917457;29;20804;-71
2023/08/27 06:48:40;;;;;;;2.27;1.27;;;18.90;90.30;;;;;;4917413;29;20864;-70
2023/08/27 06:51:07;;;;;;;2.20;1.57;;;19.00;90.20;;;;;;4917619;29;20473;-70
2023/08/27 06:53:35;;;;;;;2.60;1.53;;;19.10;89.20;;;;;;4917719;29;20540;-70
2023/08/27 06:56:02;;;;;;;2.53;1.40;;;18.90;89.40;;;;;;4917209;29;20954;-70
2023/08/27 06:58:30;;;;;;;2.10;1.40;;;19.00;89.60;;;;;;4917525;29;20494;-70
2023/08/27 07:00:57;;;;;;;2.63;1.40;;;18.90;89.30;;;;;;4917154;29;20978;-70
2023/08/27 07:03:23;;;;;;;3.40;1.83;;;19.00;90.00;;;;;;4917484;29;20425;-70
2023/08/27 07:05:50;;;;;;;2.07;1.40;;;19.00;89.30;;;;;;4917499;29;20870;-70
2023/08/27 07:08:19;;;;;;;1.90;1.10;;;18.90;89.40;;;;;;4916960;29;20862;-70
2023/08/27 07:10:47;;;;;;;3.03;1.50;;;18.80;89.20;;;;;;4917423;29;20524;-70
2023/08/27 07:13:14;;;;;;;2.63;1.50;;;18.70;90.00;;;;;;4917463;29;20455;-72
2023/08/27 07:15:41;;;;;;;2.17;1.43;;;18.70;90.00;;;;;;4917367;29;20457;-73
2023/08/27 07:18:07;;;;;;;2.10;1.40;;;18.60;90.00;;;;;;4917214;29;20535;-73
2023/08/27 07:20:34;;;;;;;1.97;1.23;;;18.60;90.40;;;;;;4917679;29;20451;-73
2023/08/27 07:23:01;;;;;;;2.63;1.27;;;18.60;90.90;;;;;;4917319;29;20531;-71
2023/08/27 07:25:28;;;;;;;2.87;1.23;;;18.60;89.90;;;;;;4917267;29;20449;-71
2023/08/27 07:27:56;;;;;;;2.00;1.10;;;18.70;90.60;;;;;;4917136;29;20451;-71
2023/08/27 07:30:23;;;;;;;3.10;1.60;;;18.90;89.20;;;;;;4917161;29;20468;-70
2023/08/27 07:32:51;;;;;;;2.20;1.30;;;19.00;89.60;;;;;;4917113;29;20452;-70
2023/08/27 07:35:18;;;;;;;1.90;1.30;;;19.10;89.80;;;;;;4917188;29;20531;-71
2023/08/27 07:37:44;;;;;;;1.90;1.10;;;19.10;88.40;;;;;;4917049;29;20488;-70
2023/08/27 07:40:11;;;;;;;3.03;1.30;;;19.20;88.80;;;;;;4917059;29;20508;-71
2023/08/27 07:42:38;;;;;;;1.80;1.00;;;19.30;88.50;;;;;;4917020;29;20528;-70
2023/08/27 07:45:07;;;;;;;2.00;0.97;;;19.20;87.00;;;;;;4917035;29;20503;-71
2023/08/27 07:47:34;;;;;;;1.90;1.10;;;19.20;87.90;;;;;;4916969;29;20451;-70
2023/08/27 07:50:01;;;;;;;2.00;1.20;;;19.20;87.60;;;;;;4916946;29;20504;-70
2023/08/27 07:52:27;;;;;;;2.23;0.97;;;19.20;88.20;;;;;;4916915;29;20465;-70
2023/08/27 07:54:54;;;;;;;2.20;0.90;;;19.20;87.90;;;;;;4916897;29;20449;-71
2023/08/27 07:57:21;;;;;;;1.70;0.80;;;19.20;87.90;;;;;;4916850;29;20485;-71
2023/08/27 07:59:48;;;;;;;1.80;1.00;;;19.00;88.40;;;;;;4916929;29;20449;-71
2023/08/27 08:02:16;;;;;;;1.73;0.90;;;19.00;89.20;;;;;;4916531;29;20569;-71
2023/08/27 08:04:43;;;;;;;1.80;0.90;;;19.00;89.10;;;;;;4916564;29;20962;-72
2023/08/27 08:07:10;;;;;;;2.17;1.00;;;19.00;89.00;;;;;;4916879;29;20537;-72
2023/08/27 08:09:37;;;;;;;1.80;1.00;;;19.00;88.80;;;;;;4916820;29;20448;-71
2023/08/27 08:12:04;;;;;;;1.77;0.97;;;19.00;89.60;;;;;;4916826;29;20465;-72
2023/08/27 08:14:31;;;;;;;2.00;1.13;;;19.00;89.70;;;;;;4916794;29;20480;-72
2023/08/27 08:16:57;;;;;;;1.97;1.33;;;19.20;89.20;;;;;;4917425;29;20488;-71
2023/08/27 08:19:25;;;;;;;2.33;0.90;;;19.30;89.00;;;;;;4917685;29;20449;-72
2023/08/27 08:21:52;;;;;;;1.80;0.90;;;19.30;88.00;;;;;;4920284;29;20499;-71
2023/08/27 08:24:19;;;;;;;2.03;1.00;;;19.30;87.40;;;;;;4920386;29;20484;-72
2023/08/27 08:26:45;;;;;;;1.60;0.77;;;19.30;87.80;;;;;;4920326;29;20455;-72
2023/08/27 08:29:12;;;;;;;2.57;0.90;;;19.50;88.10;;;;;;4920323;29;20453;-72
2023/08/27 08:31:39;;;;;;;2.10;1.10;;;19.40;86.20;;;;;;4920144;29;20472;-72
2023/08/27 08:34:05;;;;;;;1.80;0.90;;;19.50;87.40;;;;;;4919993;29;20942;-72
2023/08/27 08:36:34;;;;;;;1.70;0.80;;;19.50;86.30;;;;;;4920153;29;20504;-72
2023/08/27 08:39:00;;;;;;;2.10;1.10;;;19.30;86.50;;;;;;4920705;29;20535;-71
2023/08/27 08:41:27;;;;;;;2.00;0.93;;;19.30;87.00;;;;;;4920000;29;20465;-72
2023/08/27 08:44:02;;;;;;;1.70;0.80;;;19.30;87.60;;;;;;4919687;29;21030;-72
2023/08/27 08:46:34;;;;;;;1.90;1.00;;;19.30;88.10;;;;;;4920042;29;20536;-72
2023/08/27 08:49:04;;;;;;;2.20;0.90;;;19.20;86.70;;;;;;4919925;29;20433;-72
2023/08/27 08:51:34;;;;;;;2.23;0.80;;;19.40;87.00;;;;;;4919844;29;20562;-71
2023/08/27 08:54:05;;;;;;;1.83;0.83;;;19.40;86.30;;;;;;4919466;29;20461;-72
2023/08/27 08:56:37;;;;;;;1.90;1.00;;;19.50;87.10;;;;;;4919652;29;20437;-71
2023/08/27 08:59:05;;;;;;;1.70;0.80;;;19.40;86.80;;;;;;4919414;29;20899;-72
2023/08/27 09:01:32;;;;;;;1.70;0.70;;;19.50;86.90;;;;;;4919434;29;20484;-72
2023/08/27 09:04:01;;;;;;;2.97;1.00;;;19.50;86.70;;;;;;4919597;29;20445;-71
2023/08/27 09:06:28;;;;;;;2.70;1.27;;;19.40;87.00;;;;;;4919698;29;20884;-71
2023/08/27 09:08:57;;;;;;;1.97;1.00;;;19.30;87.50;;;;;;4919778;29;20453;-71
2023/08/27 09:11:26;;;;;;;1.50;0.70;;;19.40;86.90;;;;;;4919344;29;20480;-71
2023/08/27 09:13:54;;;;;;;1.90;0.90;;;19.50;87.50;;;;;;4919240;29;20954;-72
2023/08/27 09:16:21;;;;;;;1.70;0.80;;;19.60;87.60;;;;;;4919395;29;20826;-72
2023/08/27 09:18:51;;;;;;;1.90;0.90;;;19.80;87.80;;;;;;4919285;29;20488;-72
2023/08/27 09:21:17;;;;;;;1.97;1.03;;;20.10;87.20;;;;;;4919281;29;21001;-71
2023/08/27 09:23:44;;;;;;;1.90;1.00;;;20.20;86.30;;;;;;4919433;29;20457;-72
2023/08/27 09:26:14;;;;;;;2.10;0.90;;;20.40;86.30;;;;;;4919313;29;20805;-72
2023/08/27 09:28:41;;;;;;;2.10;1.10;;;20.50;85.50;;;;;;4919201;29;20558;-72
2023/08/27 09:31:10;;;;;;;1.70;0.83;;;20.70;83.90;;;;;;4918453;29;20520;-71
2023/08/27 09:33:39;;;;;;;2.47;1.10;;;20.80;81.90;;;;;;4919114;29;20453;-72
2023/08/27 09:36:06;;;;;;;2.20;1.63;;;20.90;81.30;;;;;;4919135;29;20504;-71
2023/08/27 09:38:34;;;;;;;2.00;0.83;;;20.90;81.90;;;;;;4919052;29;20567;-71
2023/08/27 09:41:14;;;;;;;1.90;0.90;;;21.10;82.40;;;;;;4919781;29;20563;-72
2023/08/27 09:43:41;;;;;;;2.47;1.00;;;21.20;81.10;;;;;;4919073;29;20821;-72
2023/08/27 09:46:10;;;;;;;1.90;1.00;;;21.10;80.90;;;;;;4919034;29;20449;-71
2023/08/27 09:48:37;;;;;;;1.70;1.10;;;21.00;82.00;;;;;;4918876;29;20527;-72
2023/08/27 09:51:05;;;;;;;3.07;1.33;;;21.00;81.10;;;;;;4918724;29;20472;-72
2023/08/27 09:53:32;;;;;;;2.20;1.00;;;20.90;81.90;;;;;;4918854;29;20453;-72
2023/08/27 09:56:01;;;;;;;1.70;0.80;;;21.00;81.20;;;;;;4918798;29;20830;-72
2023/08/27 09:58:29;;;;;;;1.80;1.00;;;21.00;81.50;;;;;;4918620;29;20540;-72
2023/08/27 10:00:59;;;;;;;1.70;0.80;;;20.80;81.30;;;;;;4918400;29;21029;-72
2023/08/27 10:03:25;;;;;;;1.80;0.90;;;20.80;80.40;;;;;;4918798;29;20457;-71
2023/08/27 10:05:52;;;;;;;2.17;1.00;;;20.80;81.40;;;;;;4918639;29;20449;-72
2023/08/27 10:08:19;;;;;;;1.90;1.00;;;20.90;80.60;;;;;;4918616;29;20453;-72
2023/08/27 10:10:46;;;;;;;1.93;1.13;;;21.00;80.30;;;;;;4918438;29;20465;-71
2023/08/27 10:13:15;;;;;;;2.23;1.10;;;20.90;81.50;;;;;;4918494;29;20456;-72
2023/08/27 10:15:44;;;;;;;2.37;1.20;;;21.00;79.90;;;;;;4927209;23;21006;-76
2023/08/27 10:18:13;;;;;;;2.00;1.03;;;20.90;80.50;;;;;;4899384;29;20493;-74
2023/08/27 10:20:41;;;;;;;2.03;1.00;;;21.00;81.10;;;;;;4899129;29;21008;-75
2023/08/27 10:23:09;;;;;;;2.30;1.10;;;21.20;80.10;;;;;;4899260;29;20461;-75
2023/08/27 10:25:36;;;;;;;2.10;1.20;;;21.40;79.90;;;;;;4898915;29;20992;-75
2023/08/27 10:28:04;;;;;;;1.80;1.00;;;21.50;79.40;;;;;;4899413;29;20445;-74
2023/08/27 10:30:32;;;;;;;2.40;0.93;;;21.60;79.40;;;;;;4898949;29;20457;-75
2023/08/27 10:33:00;;;;;;;1.80;0.93;;;21.60;78.30;;;;;;4898787;29;20456;-75
2023/08/27 10:35:27;;;;;;;2.00;1.10;;;21.20;79.20;;;;;;4899019;29;20525;-75
2023/08/27 10:37:56;;;;;;;3.70;0.93;;;21.10;80.30;;;;;;4898946;29;20560;-75
2023/08/27 10:40:26;;;;;;;1.90;1.00;;;21.30;80.50;;;;;;4898973;29;20456;-78
2023/08/27 10:43:07;;;;;;;1.80;0.80;;;21.60;79.90;;;;;;4898702;29;20505;-75
2023/08/27 10:45:38;;;;;;;1.70;0.93;;;21.70;78.70;;;;;;4898892;29;20529;-75
2023/08/27 10:48:11;;;;;;;2.03;0.90;;;21.90;78.10;;;;;;4898892;29;20430;-75
2023/08/27 10:50:46;;;;;;;1.90;0.90;;;21.80;78.10;;;;;;4898775;29;20513;-75
2023/08/27 10:53:13;;;;;;;3.97;1.00;;;21.60;76.20;;;;;;4898800;29;20480;-75
2023/08/27 10:55:43;;;;;;;2.10;0.87;;;21.60;76.90;;;;;;4898674;29;20524;-75
2023/08/27 10:58:17;;;;;;;2.00;1.00;;;21.70;77.80;;;;;;4898364;29;20983;-74
2023/08/27 11:01:06;;;;;;;2.30;0.97;;;21.60;78.00;;;;;;4898648;29;20457;-75
2023/08/27 11:03:57;;;;;;;1.80;0.90;;;21.60;77.80;;;;;;4898643;29;20426;-75
2023/08/27 11:06:43;;;;;;;1.70;0.80;;;21.50;78.10;;;;;;4898617;29;20430;-75
2023/08/27 11:09:30;;;;;;;2.20;1.17;;;21.20;78.00;;;;;;4898590;29;20433;-74
2023/08/27 11:11:59;;;;;;;1.80;1.00;;;21.20;78.90;;;;;;4898579;29;20467;-75
2023/08/27 11:14:26;;;;;;;1.80;1.03;;;21.40;77.70;;;;;;4897969;29;21002;-75
2023/08/27 11:16:59;;;;;;;2.50;1.17;;;21.60;76.50;;;;;;4898473;29;20449;-76
2023/08/27 11:19:32;;;;;;;2.27;0.97;;;21.80;76.10;;;;;;4898414;29;20477;-75
2023/08/27 11:22:11;;;;;;;1.63;0.90;;;21.80;76.30;;;;;;4898422;29;20453;-75
2023/08/27 11:24:42;;;;;;;1.67;0.90;;;21.60;76.20;;;;;;4898376;29;20470;-76
2023/08/27 11:27:10;;;;;;;2.03;1.00;;;21.60;78.20;;;;;;4898308;29;20466;-75
2023/08/27 11:29:40;;;;;;;1.80;1.00;;;21.60;78.20;;;;;;4898160;29;20454;-75
2023/08/27 11:32:07;;;;;;;2.00;1.20;;;21.70;76.30;;;;;;4898295;29;20983;-75
2023/08/27 11:34:37;;;;;;;2.10;1.20;;;21.90;76.10;;;;;;4898202;29;20537;-75
2023/08/27 11:37:05;;;;;;;1.90;0.80;;;21.70;74.60;;;;;;4898216;29;20457;-75
2023/08/27 11:39:33;;;;;;;2.27;1.00;;;21.80;75.60;;;;;;4898117;29;20494;-75
2023/08/27 11:42:00;;;;;;;2.00;1.10;;;21.80;74.70;;;;;;4898193;29;20525;-75
2023/08/27 11:44:26;;;;;;;1.80;1.10;;;21.90;75.20;;;;;;4898111;29;20557;-75
2023/08/27 11:46:53;;;;;;;1.90;1.00;;;22.00;76.60;;;;;;4898125;29;20505;-76
2023/08/27 11:49:28;;;;;;;1.80;1.00;;;22.10;75.20;;;;;;4898184;29;20445;-75
2023/08/27 11:51:57;;;;;;;1.97;0.97;;;22.10;74.30;;;;;;4898148;29;20441;-75
2023/08/27 11:54:28;;;;;;;1.87;0.97;;;22.00;74.60;;;;;;4899418;29;20512;-75
2023/08/27 11:56:56;;;;;;;2.63;1.23;;;22.10;74.50;;;;;;4901980;29;20434;-75
2023/08/27 11:59:25;;;;;;;2.90;2.40;;;22.30;74.30;;;;;;4901851;29;20489;-75
2023/08/27 12:01:51;;;;;;;1.90;1.00;;;22.40;73.10;;;;;;4901826;29;20496;-76
2023/08/27 12:04:18;;;;;;;1.80;0.90;;;22.40;73.30;;;;;;4901440;29;20893;-75
2023/08/27 12:06:51;;;;;;;2.17;1.00;;;22.40;73.90;;;;;;4901809;29;20465;-75
2023/08/27 12:09:24;;;;;;;1.80;0.90;;;22.50;73.70;;;;;;4901900;29;20493;-75
2023/08/27 12:11:51;;;;;;;1.87;1.10;;;22.70;74.10;;;;;;4901454;29;20520;-74
2023/08/27 12:14:23;;;;;;;2.07;0.90;;;22.80;73.50;;;;;;4901401;29;20485;-75
2023/08/27 12:16:50;;;;;;;2.00;0.93;;;22.80;72.90;;;;;;4901622;29;20472;-76
2023/08/27 12:19:20;;;;;;;1.70;0.80;;;22.80;70.20;;;;;;4901439;29;20489;-75
2023/08/27 12:21:51;;;;;;;2.20;1.30;;;22.40;73.30;;;;;;4901501;29;20450;-75
2023/08/27 12:24:29;;;;;;;2.03;1.23;;;22.30;73.60;;;;;;4901397;29;20466;-75
2023/08/27 12:26:56;;;;;;;1.83;1.00;;;22.00;74.70;;;;;;4901381;29;20453;-76
2023/08/27 12:29:26;;;;;;;1.50;0.80;;;21.80;74.20;;;;;;4901375;29;20442;-76
2023/08/27 12:31:53;;;;;;;2.00;0.90;;;21.60;74.70;;;;;;4901299;29;20481;-77
2023/08/27 12:34:20;;;;;;;1.90;1.10;;;21.80;75.90;;;;;;4901212;29;20615;-76
2023/08/27 12:36:46;;;;;;;2.50;1.13;;;21.80;77.10;;;;;;4901250;29;20575;-76
2023/08/27 12:39:13;;;;;;;2.00;1.17;;;21.70;77.50;;;;;;4901124;29;20484;-76
2023/08/27 12:41:41;;;;;;;1.73;1.00;;;21.50;78.30;;;;;;4901161;29;20528;-76
2023/08/27 12:44:08;;;;;;;2.87;1.30;;;21.50;78.20;;;;;;4901024;29;20453;-76
2023/08/27 12:46:35;;;;;;;1.70;0.93;;;21.40;77.50;;;;;;4901055;29;20453;-77
2023/08/27 12:49:02;;;;;;;1.97;1.20;;;21.30;78.30;;;;;;4900699;29;20497;-76
2023/08/27 12:51:29;;;;;;;2.27;0.90;;;21.00;78.80;;;;;;4900970;29;20446;-77
2023/08/27 12:53:56;;;;;;;3.47;1.10;;;21.00;78.10;;;;;;4900887;29;20461;-77
2023/08/27 12:56:22;;;;;;;2.00;1.10;;;20.90;77.80;;;;;;4900601;29;20550;-76
2023/08/27 12:58:50;;;;;;;1.80;0.83;;;21.00;77.20;;;;;;4900776;29;20481;-76
2023/08/27 13:01:17;;;;;;;2.00;1.20;;;21.10;77.40;;;;;;4900812;29;20453;-76
2023/08/27 13:03:44;;;;;;;2.00;1.10;;;21.00;77.00;;;;;;4900750;29;20477;-76
2023/08/27 13:06:10;;;;;;;1.73;0.93;;;21.10;78.00;;;;;;4899646;29;20465;-76
2023/08/27 13:08:37;;;;;;;2.10;1.20;;;21.30;78.60;;;;;;4900680;29;20441;-76
2023/08/27 13:11:03;;;;;;;1.93;1.00;;;21.50;75.70;;;;;;4900610;29;20805;-75
2023/08/27 13:13:31;;;;;;;1.97;1.03;;;21.60;76.00;;;;;;4900583;29;20452;-76
2023/08/27 13:15:59;;;;;;;1.97;1.10;;;21.60;75.90;;;;;;4900962;29;21014;-76
2023/08/27 13:18:25;;;;;;;2.00;1.00;;;21.80;76.70;;;;;;4900425;29;20489;-77
2023/08/27 13:20:52;;;;;;;2.97;0.93;;;21.90;73.50;;;;;;4900479;29;20449;-75
2023/08/27 13:23:20;;;;;;;1.90;1.20;;;21.90;74.40;;;;;;4900468;29;20453;-76
2023/08/27 13:25:46;;;;;;;2.00;1.00;;;21.90;74.90;;;;;;4900321;29;20479;-76
2023/08/27 13:28:14;;;;;;;2.13;1.10;;;21.90;74.50;;;;;;4900345;29;20453;-76
2023/08/27 13:30:40;;;;;;;2.00;1.10;;;21.90;74.10;;;;;;4900102;29;20959;-78
2023/08/27 13:33:08;;;;;;;2.10;1.20;;;22.00;72.90;;;;;;4900582;29;20465;-79
2023/08/27 13:35:35;;;;;;;2.20;1.00;;;21.90;74.90;;;;;;4900332;29;20470;-78
2023/08/27 13:38:02;;;;;;;1.80;0.90;;;21.80;73.80;;;;;;4900394;29;20450;-78
2023/08/27 13:40:29;;;;;;;2.00;1.07;;;21.60;74.70;;;;;;4899934;29;20837;-78
2023/08/27 13:42:56;;;;;;;1.90;1.10;;;21.70;76.00;;;;;;4900060;29;20449;-77
2023/08/27 13:45:23;;;;;;;1.70;0.90;;;21.90;76.40;;;;;;4899985;29;20525;-77
2023/08/27 13:47:50;;;;;;;1.90;1.00;;;22.10;75.80;;;;;;4899947;29;20449;-77
2023/08/27 13:50:19;;;;;;;2.00;1.10;;;22.20;75.20;;;;;;4899627;29;20950;-77
2023/08/27 13:52:45;;;;;;;2.37;1.17;;;22.30;74.20;;;;;;4899908;29;20834;-77
2023/08/27 13:55:13;;;;;;;2.00;1.03;;;22.20;74.80;;;;;;4899785;29;20469;-77
2023/08/27 13:57:41;;;;;;;1.80;1.00;;;22.20;75.10;;;;;;4899726;29;20466;-77
2023/08/27 14:00:09;;;;;;;2.00;1.03;;;22.20;75.20;;;;;;4899742;29;20486;-77
2023/08/27 14:02:36;;;;;;;1.67;0.83;;;22.20;75.90;;;;;;4899726;29;20445;-77
2023/08/27 14:05:03;;;;;;;1.90;1.00;;;22.30;75.00;;;;;;4900374;29;20473;-77
2023/08/27 14:07:31;;;;;;;1.90;1.00;;;22.00;74.00;;;;;;4900248;29;20991;-77
2023/08/27 14:09:58;;;;;;;1.90;1.03;;;21.80;75.40;;;;;;4899745;29;20476;-77
2023/08/27 14:12:25;;;;;;;2.00;1.07;;;21.80;76.00;;;;;;4899747;29;20804;-77
2023/08/27 14:14:52;;;;;;;2.10;1.30;;;21.90;76.30;;;;;;4899335;29;20481;-77
2023/08/27 14:17:20;;;;;;;2.20;1.27;;;21.70;76.80;;;;;;4899836;29;20457;-77
2023/08/27 14:19:47;;;;;;;1.97;1.23;;;21.70;77.20;;;;;;4899584;29;20489;-77
2023/08/27 14:22:13;;;;;;;2.40;1.20;;;21.70;77.10;;;;;;4899408;29;20510;-77
2023/08/27 14:24:42;;;;;;;1.70;0.90;;;21.60;77.00;;;;;;4899211;29;20474;-77
2023/08/27 14:27:09;;;;;;;2.17;1.43;;;21.30;76.40;;;;;;4898895;29;20825;-77
2023/08/27 14:29:37;;;;;;;2.30;1.10;;;20.90;77.20;;;;;;4899225;29;20445;-77
2023/08/27 14:32:04;;;;;;;3.07;1.40;;;20.60;78.70;;;;;;4899140;29;20472;-77
2023/08/27 14:34:31;;;;;;;2.30;1.20;;;20.30;80.10;;;;;;4899062;29;20893;-77
2023/08/27 14:36:58;;;;;;;3.33;1.60;;;20.10;80.60;;;;;;4899064;29;20486;-77
2023/08/27 14:39:25;;;;;;;2.20;1.10;;;19.90;81.10;;;;;;4898946;29;20481;-77
2023/08/27 14:41:53;;;;;;;2.90;1.20;;;19.90;82.00;;;;;;4898955;29;20968;-77
2023/08/27 14:44:20;;;;;;;2.90;1.60;;;19.70;82.00;;;;;;4898837;29;20477;-77
2023/08/27 14:46:47;;;;;;;2.03;1.40;;;19.40;82.60;;;;;;4898986;29;20445;-78
2023/08/27 14:49:13;;;;;;;2.23;1.43;;;19.30;83.60;;;;;;4898889;29;20525;-77
2023/08/27 14:51:40;;;;;;;2.10;1.13;;;19.20;84.60;;;;;;4898504;29;20457;-77
2023/08/27 14:54:07;;;;;;;2.80;1.80;;;19.10;84.60;;;;;;4898427;29;20940;-75
2023/08/27 14:56:34;;;;;;;2.43;1.50;;;19.00;85.40;;;;;;4898809;29;20513;-77
2023/08/27 14:59:02;;;;;;;1.90;1.10;;;19.00;85.60;;;;;;4898652;29;20489;-77
2023/08/27 15:01:28;;;;;;;2.83;1.43;;;18.80;86.20;;;;;;4898666;29;20454;-77
2023/08/27 15:03:55;;;;;;;2.10;1.30;;;18.80;86.50;;;;;;4898550;29;20453;-76
2023/08/27 15:06:22;;;;;;;2.10;1.30;;;18.80;85.90;;;;;;4898621;29;20450;-76
2023/08/27 15:08:50;;;;;;;2.53;1.43;;;18.80;85.40;;;;;;4898566;29;20445;-75
2023/08/27 15:11:18;;;;;;;2.47;1.07;;;18.70;85.10;;;;;;4898446;29;20944;-77
2023/08/27 15:13:45;;;;;;;2.20;1.40;;;18.80;85.30;;;;;;4898504;29;20544;-75
2023/08/27 15:16:13;;;;;;;2.63;1.30;;;18.90;85.70;;;;;;4898078;29;20569;-75
2023/08/27 15:18:40;;;;;;;2.90;1.40;;;19.00;85.80;;;;;;4898379;29;20489;-75
2023/08/27 15:21:06;;;;;;;2.40;1.20;;;19.10;84.80;;;;;;4898360;29;20446;-75
2023/08/27 15:23:33;;;;;;;2.07;1.33;;;19.10;85.20;;;;;;4898075;29;20450;-75
2023/08/27 15:26:00;;;;;;;2.13;1.13;;;19.20;85.20;;;;;;4898291;29;20466;-75
2023/08/27 15:28:26;;;;;;;2.53;1.70;;;19.30;85.00;;;;;;4897865;29;20460;-75
2023/08/27 15:30:54;;;;;;;2.00;1.30;;;19.40;85.10;;;;;;4897938;29;20509;-75
2023/08/27 15:33:22;;;;;;;2.37;1.30;;;19.40;84.70;;;;;;4898233;29;20492;-75
2023/08/27 15:35:50;;;;;;;2.40;1.40;;;19.40;84.60;;;;;;4898168;29;20473;-75
2023/08/27 15:38:17;;;;;;;2.43;1.20;;;19.40;83.90;;;;;;4898194;29;20456;-75
2023/08/27 15:40:52;;;;;;;2.00;1.30;;;19.40;84.80;;;;;;4898146;29;20497;-77
2023/08/27 15:43:22;;;;;;;1.93;1.20;;;19.20;84.30;;;;;;4898001;29;20433;-77
2023/08/27 15:45:50;;;;;;;2.10;1.40;;;19.10;84.90;;;;;;4898106;29;20561;-77
2023/08/27 15:48:17;;;;;;;3.10;1.20;;;19.10;85.60;;;;;;4898126;29;20449;-77
2023/08/27 15:50:45;;;;;;;1.90;1.13;;;19.10;85.00;;;;;;4898120;29;20445;-77
2023/08/27 15:53:12;;;;;;;2.10;1.33;;;19.00;86.00;;;;;;4898116;29;20446;-77
2023/08/27 15:55:39;;;;;;;2.40;1.00;;;18.90;86.10;;;;;;4898004;29;20502;-76
2023/08/27 15:58:06;;;;;;;2.33;1.40;;;18.90;86.20;;;;;;4898054;29;20454;-77
2023/08/27 16:00:33;;;;;;;2.87;1.20;;;18.90;85.90;;;;;;4898000;29;20486;-77
2023/08/27 16:03:00;;;;;;;1.90;1.20;;;18.90;86.00;;;;;;4898003;29;20579;-77
2023/08/27 16:05:29;;;;;;;2.20;1.33;;;18.90;86.20;;;;;;4897924;29;20476;-77
2023/08/27 16:07:57;;;;;;;2.57;1.33;;;18.90;86.60;;;;;;4897985;29;20536;-77
2023/08/27 16:10:24;;;;;;;1.93;1.40;;;19.00;86.50;;;;;;4898179;29;20449;-77
2023/08/27 16:12:51;;;;;;;2.83;1.30;;;19.10;86.40;;;;;;4897940;29;20454;-77
2023/08/27 16:15:18;;;;;;;2.83;1.30;;;19.20;86.00;;;;;;5034539;23;20505;-71
2023/08/27 16:17:46;;;;;;;1.80;1.03;;;19.20;85.40;;;;;;4897559;29;20452;-71
2023/08/27 16:20:13;;;;;;;2.40;1.27;;;19.30;84.90;;;;;;4897632;29;20489;-71
2023/08/27 16:22:43;;;;;;;2.03;1.20;;;19.30;85.20;;;;;;4897595;29;20944;-71
2023/08/27 16:25:12;;;;;;;2.20;1.13;;;19.20;85.00;;;;;;4897956;29;20529;-72
2023/08/27 16:27:39;;;;;;;2.00;1.23;;;19.30;85.20;;;;;;4897701;29;20861;-72
2023/08/27 16:30:07;;;;;;;1.80;1.00;;;19.40;85.10;;;;;;4898103;29;20449;-72
2023/08/27 16:32:34;;;;;;;1.97;1.17;;;19.40;84.80;;;;;;4897566;29;20457;-71
2023/08/27 16:35:01;;;;;;;2.10;1.40;;;19.40;84.20;;;;;;4897747;29;20465;-71
2023/08/27 16:37:28;;;;;;;2.67;1.50;;;19.30;84.50;;;;;;4897819;29;20445;-71
2023/08/27 16:39:54;;;;;;;2.93;1.50;;;19.30;84.60;;;;;;4897564;29;21007;-71
2023/08/27 16:42:25;;;;;;;2.87;1.43;;;19.10;84.90;;;;;;4901052;29;20465;-72
2023/08/27 16:44:51;;;;;;;2.90;1.77;;;19.10;85.70;;;;;;4901176;29;20485;-73
2023/08/27 16:47:21;;;;;;;2.00;1.20;;;19.10;86.00;;;;;;4901243;29;20501;-72
2023/08/27 16:49:48;;;;;;;2.40;1.53;;;19.20;85.90;;;;;;4901083;29;20536;-72
2023/08/27 16:52:14;;;;;;;2.90;1.60;;;19.30;85.80;;;;;;4901046;29;20449;-72